sensor_id;sensor_type;location;lat;lon;timestamp;P1;durP1;ratioP1;P2;durP2;ratioP2
3999;SDS011;2014;53.604;10.112;2022-07-10T00:00:34;6.20;;;0.90;;
3999;SDS011;2014;53.604;10.112;2022-07-10T00:03:02;2.70;;;1.10;;
3999;SDS011;2014;53.604;10.112;2022-07-10T00:05:30;2.00;;;1.00;;
3999;SDS011;2014;53.604;10.112;2022-07-10T00:08:00;3.23;;;1.17;;
3999;SDS011;2014;53.604;10.112;2022-07-10T00:10:28;11.90;;;0.93;;
3999;SDS011;2014;53.604;10.112;2022-07-10T00:12:55;1.20;;;0.60;;
3999;SDS011;2014;53.604;10.112;2022-07-10T00:15:23;4.53;;;0.80;;
3999;SDS011;2014;53.604;10.112;2022-07-10T00:17:50;5.40;;;1.00;;
3999;SDS011;2014;53.604;10.112;2022-07-10T00:20:18;4.87;;;0.80;;
3999;SDS011;2014;53.604;10.112;2022-07-10T00:22:45;1.70;;;0.73;;
3999;SDS011;2014;53.604;10.112;2022-07-10T00:25:14;12.30;;;1.17;;
3999;SDS011;2014;53.604;10.112;2022-07-10T00:27:42;0.97;;;0.57;;
3999;SDS011;2014;53.604;10.112;2022-07-10T00:30:10;2.30;;;0.80;;
3999;SDS011;2014;53.604;10.112;2022-07-10T00:32:37;1.97;;;0.90;;
3999;SDS011;2014;53.604;10.112;2022-07-10T00:35:05;3.47;;;1.00;;
3999;SDS011;2014;53.604;10.112;2022-07-10T00:37:32;1.63;;;0.97;;
3999;SDS011;2014;53.604;10.112;2022-07-10T00:39:59;1.40;;;0.80;;
3999;SDS011;2014;53.604;10.112;2022-07-10T00:42:28;7.93;;;1.50;;
3999;SDS011;2014;53.604;10.112;2022-07-10T00:44:55;4.37;;;0.97;;
3999;SDS011;2014;53.604;10.112;2022-07-10T00:47:23;5.53;;;1.60;;
3999;SDS011;2014;53.604;10.112;2022-07-10T00:49:50;2.70;;;1.20;;
3999;SDS011;2014;53.604;10.112;2022-07-10T00:52:17;2.63;;;0.90;;
3999;SDS011;2014;53.604;10.112;2022-07-10T00:54:46;3.77;;;0.87;;
3999;SDS011;2014;53.604;10.112;2022-07-10T00:57:15;4.43;;;0.90;;
3999;SDS011;2014;53.604;10.112;2022-07-10T00:59:45;6.20;;;1.03;;
3999;SDS011;2014;53.604;10.112;2022-07-10T01:02:12;5.87;;;0.90;;
3999;SDS011;2014;53.604;10.112;2022-07-10T01:04:41;4.87;;;1.20;;
3999;SDS011;2014;53.604;10.112;2022-07-10T01:07:08;2.97;;;0.70;;
3999;SDS011;2014;53.604;10.112;2022-07-10T01:09:36;9.07;;;1.13;;
3999;SDS011;2014;53.604;10.112;2022-07-10T01:12:04;2.33;;;1.03;;
3999;SDS011;2014;53.604;10.112;2022-07-10T01:14:31;3.03;;;0.90;;
3999;SDS011;2014;53.604;10.112;2022-07-10T01:17:02;3.03;;;1.10;;
3999;SDS011;2014;53.604;10.112;2022-07-10T01:19:30;3.93;;;0.83;;
3999;SDS011;2014;53.604;10.112;2022-07-10T01:21:59;2.10;;;1.00;;
3999;SDS011;2014;53.604;10.112;2022-07-10T01:24:27;3.57;;;0.83;;
3999;SDS011;2014;53.604;10.112;2022-07-10T01:26:54;8.63;;;1.73;;
3999;SDS011;2014;53.604;10.112;2022-07-10T01:29:21;3.67;;;1.13;;
3999;SDS011;2014;53.604;10.112;2022-07-10T01:31:49;1.73;;;0.67;;
3999;SDS011;2014;53.604;10.112;2022-07-10T01:34:16;3.37;;;2.10;;
3999;SDS011;2014;53.604;10.112;2022-07-10T01:36:44;4.17;;;0.90;;
3999;SDS011;2014;53.604;10.112;2022-07-10T01:39:12;2.63;;;1.03;;
3999;SDS011;2014;53.604;10.112;2022-07-10T01:41:40;4.83;;;1.10;;
3999;SDS011;2014;53.604;10.112;2022-07-10T01:44:07;4.00;;;1.07;;
3999;SDS011;2014;53.604;10.112;2022-07-10T01:46:34;1.43;;;0.70;;
3999;SDS011;2014;53.604;10.112;2022-07-10T01:49:02;1.83;;;1.03;;
3999;SDS011;2014;53.604;10.112;2022-07-10T01:51:29;3.73;;;0.70;;
3999;SDS011;2014;53.604;10.112;2022-07-10T01:53:56;5.37;;;1.20;;
3999;SDS011;2014;53.604;10.112;2022-07-10T01:56:25;7.23;;;1.57;;
3999;SDS011;2014;53.604;10.112;2022-07-10T01:58:52;4.37;;;1.30;;
3999;SDS011;2014;53.604;10.112;2022-07-10T02:01:20;6.67;;;1.00;;
3999;SDS011;2014;53.604;10.112;2022-07-10T02:03:47;2.10;;;0.67;;
3999;SDS011;2014;53.604;10.112;2022-07-10T02:06:32;3.87;;;1.30;;
3999;SDS011;2014;53.604;10.112;2022-07-10T02:08:59;7.63;;;0.80;;
3999;SDS011;2014;53.604;10.112;2022-07-10T02:11:28;4.83;;;1.40;;
3999;SDS011;2014;53.604;10.112;2022-07-10T02:13:56;4.57;;;1.23;;
3999;SDS011;2014;53.604;10.112;2022-07-10T02:16:23;5.83;;;0.97;;
3999;SDS011;2014;53.604;10.112;2022-07-10T02:18:51;1.90;;;1.00;;
3999;SDS011;2014;53.604;10.112;2022-07-10T02:21:18;2.73;;;0.90;;
3999;SDS011;2014;53.604;10.112;2022-07-10T02:23:45;2.53;;;0.90;;
3999;SDS011;2014;53.604;10.112;2022-07-10T02:26:12;4.50;;;0.70;;
3999;SDS011;2014;53.604;10.112;2022-07-10T02:28:41;6.33;;;1.63;;
3999;SDS011;2014;53.604;10.112;2022-07-10T02:31:08;3.23;;;0.70;;
3999;SDS011;2014;53.604;10.112;2022-07-10T02:33:36;4.30;;;1.17;;
3999;SDS011;2014;53.604;10.112;2022-07-10T02:36:04;3.10;;;0.80;;
3999;SDS011;2014;53.604;10.112;2022-07-10T02:38:31;9.90;;;1.40;;
3999;SDS011;2014;53.604;10.112;2022-07-10T02:40:59;6.90;;;1.40;;
3999;SDS011;2014;53.604;10.112;2022-07-10T02:43:26;6.10;;;0.90;;
3999;SDS011;2014;53.604;10.112;2022-07-10T02:45:55;9.10;;;1.90;;
3999;SDS011;2014;53.604;10.112;2022-07-10T02:48:22;2.23;;;1.03;;
3999;SDS011;2014;53.604;10.112;2022-07-10T02:50:50;3.60;;;1.00;;
3999;SDS011;2014;53.604;10.112;2022-07-10T02:53:17;4.23;;;1.13;;
3999;SDS011;2014;53.604;10.112;2022-07-10T02:55:45;2.40;;;0.93;;
3999;SDS011;2014;53.604;10.112;2022-07-10T02:58:12;3.23;;;1.43;;
3999;SDS011;2014;53.604;10.112;2022-07-10T03:00:40;2.80;;;0.93;;
3999;SDS011;2014;53.604;10.112;2022-07-10T03:03:09;3.77;;;1.00;;
3999;SDS011;2014;53.604;10.112;2022-07-10T03:05:36;6.90;;;1.30;;
3999;SDS011;2014;53.604;10.112;2022-07-10T03:08:04;4.10;;;0.93;;
3999;SDS011;2014;53.604;10.112;2022-07-10T03:10:31;5.33;;;1.60;;
3999;SDS011;2014;53.604;10.112;2022-07-10T03:12:58;8.60;;;1.53;;
3999;SDS011;2014;53.604;10.112;2022-07-10T03:15:26;5.60;;;1.50;;
3999;SDS011;2014;53.604;10.112;2022-07-10T03:17:54;4.20;;;1.33;;
3999;SDS011;2014;53.604;10.112;2022-07-10T03:20:23;3.73;;;1.47;;
3999;SDS011;2014;53.604;10.112;2022-07-10T03:22:50;9.20;;;2.17;;
3999;SDS011;2014;53.604;10.112;2022-07-10T03:25:17;2.87;;;1.43;;
3999;SDS011;2014;53.604;10.112;2022-07-10T03:27:45;3.67;;;1.33;;
3999;SDS011;2014;53.604;10.112;2022-07-10T03:30:12;10.37;;;1.80;;
3999;SDS011;2014;53.604;10.112;2022-07-10T03:32:39;8.70;;;2.40;;
3999;SDS011;2014;53.604;10.112;2022-07-10T03:35:07;6.03;;;1.63;;
3999;SDS011;2014;53.604;10.112;2022-07-10T03:37:36;12.27;;;2.10;;
3999;SDS011;2014;53.604;10.112;2022-07-10T03:40:03;10.13;;;2.13;;
3999;SDS011;2014;53.604;10.112;2022-07-10T03:42:31;10.93;;;1.60;;
3999;SDS011;2014;53.604;10.112;2022-07-10T03:44:58;4.07;;;2.00;;
3999;SDS011;2014;53.604;10.112;2022-07-10T03:47:26;7.70;;;2.10;;
3999;SDS011;2014;53.604;10.112;2022-07-10T03:49:53;15.30;;;2.87;;
3999;SDS011;2014;53.604;10.112;2022-07-10T03:52:20;13.20;;;2.03;;
3999;SDS011;2014;53.604;10.112;2022-07-10T03:54:49;5.03;;;1.80;;
3999;SDS011;2014;53.604;10.112;2022-07-10T03:57:16;6.47;;;1.80;;
3999;SDS011;2014;53.604;10.112;2022-07-10T04:00:02;8.70;;;1.50;;
3999;SDS011;2014;53.604;10.112;2022-07-10T04:02:30;7.57;;;2.30;;
3999;SDS011;2014;53.604;10.112;2022-07-10T04:04:57;14.17;;;2.67;;
3999;SDS011;2014;53.604;10.112;2022-07-10T04:07:24;16.30;;;2.43;;
3999;SDS011;2014;53.604;10.112;2022-07-10T04:09:53;8.57;;;1.97;;
3999;SDS011;2014;53.604;10.112;2022-07-10T04:12:20;9.40;;;1.70;;
3999;SDS011;2014;53.604;10.112;2022-07-10T04:14:47;9.47;;;2.67;;
3999;SDS011;2014;53.604;10.112;2022-07-10T04:17:16;7.47;;;1.90;;
3999;SDS011;2014;53.604;10.112;2022-07-10T04:19:44;16.87;;;3.53;;
3999;SDS011;2014;53.604;10.112;2022-07-10T04:22:11;14.90;;;3.10;;
3999;SDS011;2014;53.604;10.112;2022-07-10T04:24:39;5.47;;;1.97;;
3999;SDS011;2014;53.604;10.112;2022-07-10T04:27:07;8.40;;;1.93;;
3999;SDS011;2014;53.604;10.112;2022-07-10T04:29:35;6.03;;;1.70;;
3999;SDS011;2014;53.604;10.112;2022-07-10T04:32:02;12.67;;;2.67;;
3999;SDS011;2014;53.604;10.112;2022-07-10T04:34:30;6.53;;;2.20;;
3999;SDS011;2014;53.604;10.112;2022-07-10T04:36:57;10.00;;;2.50;;
3999;SDS011;2014;53.604;10.112;2022-07-10T04:39:25;12.33;;;2.23;;
3999;SDS011;2014;53.604;10.112;2022-07-10T04:41:52;8.50;;;1.77;;
3999;SDS011;2014;53.604;10.112;2022-07-10T04:44:21;9.67;;;2.20;;
3999;SDS011;2014;53.604;10.112;2022-07-10T04:46:48;7.83;;;2.17;;
3999;SDS011;2014;53.604;10.112;2022-07-10T04:49:15;9.17;;;3.20;;
3999;SDS011;2014;53.604;10.112;2022-07-10T04:51:43;22.13;;;2.90;;
3999;SDS011;2014;53.604;10.112;2022-07-10T04:54:10;8.50;;;2.80;;
3999;SDS011;2014;53.604;10.112;2022-07-10T04:56:37;8.40;;;2.60;;
3999;SDS011;2014;53.604;10.112;2022-07-10T04:59:04;21.00;;;2.77;;
3999;SDS011;2014;53.604;10.112;2022-07-10T05:01:34;10.60;;;1.83;;
3999;SDS011;2014;53.604;10.112;2022-07-10T05:04:02;14.03;;;2.67;;
3999;SDS011;2014;53.604;10.112;2022-07-10T05:06:30;9.47;;;2.30;;
3999;SDS011;2014;53.604;10.112;2022-07-10T05:08:57;12.60;;;3.30;;
3999;SDS011;2014;53.604;10.112;2022-07-10T05:11:24;8.87;;;2.80;;
3999;SDS011;2014;53.604;10.112;2022-07-10T05:13:52;14.67;;;2.50;;
3999;SDS011;2014;53.604;10.112;2022-07-10T05:16:19;7.83;;;2.50;;
3999;SDS011;2014;53.604;10.112;2022-07-10T05:18:48;13.23;;;2.40;;
3999;SDS011;2014;53.604;10.112;2022-07-10T05:21:15;13.83;;;2.60;;
3999;SDS011;2014;53.604;10.112;2022-07-10T05:23:43;6.40;;;2.50;;
3999;SDS011;2014;53.604;10.112;2022-07-10T05:26:10;11.90;;;2.70;;
3999;SDS011;2014;53.604;10.112;2022-07-10T05:28:38;10.77;;;2.33;;
3999;SDS011;2014;53.604;10.112;2022-07-10T05:31:05;10.47;;;2.50;;
3999;SDS011;2014;53.604;10.112;2022-07-10T05:33:32;7.30;;;2.20;;
3999;SDS011;2014;53.604;10.112;2022-07-10T05:36:01;13.50;;;2.77;;
3999;SDS011;2014;53.604;10.112;2022-07-10T05:38:29;11.40;;;2.10;;
3999;SDS011;2014;53.604;10.112;2022-07-10T05:40:56;11.83;;;2.10;;
3999;SDS011;2014;53.604;10.112;2022-07-10T05:43:23;18.47;;;3.90;;
3999;SDS011;2014;53.604;10.112;2022-07-10T05:45:50;6.10;;;2.37;;
3999;SDS011;2014;53.604;10.112;2022-07-10T05:48:18;6.50;;;2.80;;
3999;SDS011;2014;53.604;10.112;2022-07-10T05:50:46;6.23;;;1.90;;
3999;SDS011;2014;53.604;10.112;2022-07-10T05:53:14;9.00;;;2.20;;
3999;SDS011;2014;53.604;10.112;2022-07-10T05:55:44;12.90;;;2.30;;
3999;SDS011;2014;53.604;10.112;2022-07-10T05:58:12;16.43;;;3.00;;
3999;SDS011;2014;53.604;10.112;2022-07-10T06:00:39;12.40;;;2.60;;
3999;SDS011;2014;53.604;10.112;2022-07-10T06:03:08;22.97;;;2.27;;
3999;SDS011;2014;53.604;10.112;2022-07-10T06:05:36;8.57;;;3.17;;
3999;SDS011;2014;53.604;10.112;2022-07-10T06:08:04;9.27;;;2.40;;
3999;SDS011;2014;53.604;10.112;2022-07-10T06:10:33;10.33;;;2.63;;
3999;SDS011;2014;53.604;10.112;2022-07-10T06:13:00;10.57;;;2.77;;
3999;SDS011;2014;53.604;10.112;2022-07-10T06:15:27;11.20;;;2.23;;
3999;SDS011;2014;53.604;10.112;2022-07-10T06:17:56;15.30;;;2.23;;
3999;SDS011;2014;53.604;10.112;2022-07-10T06:20:24;9.23;;;2.23;;
3999;SDS011;2014;53.604;10.112;2022-07-10T06:22:51;10.03;;;2.10;;
3999;SDS011;2014;53.604;10.112;2022-07-10T06:25:18;6.80;;;2.20;;
3999;SDS011;2014;53.604;10.112;2022-07-10T06:27:47;8.13;;;1.90;;
3999;SDS011;2014;53.604;10.112;2022-07-10T06:30:15;13.30;;;2.63;;
3999;SDS011;2014;53.604;10.112;2022-07-10T06:32:42;21.43;;;2.60;;
3999;SDS011;2014;53.604;10.112;2022-07-10T06:35:10;3.30;;;1.70;;
3999;SDS011;2014;53.604;10.112;2022-07-10T06:37:37;10.50;;;2.20;;
3999;SDS011;2014;53.604;10.112;2022-07-10T06:40:05;12.87;;;2.03;;
3999;SDS011;2014;53.604;10.112;2022-07-10T06:42:32;17.93;;;2.27;;
3999;SDS011;2014;53.604;10.112;2022-07-10T06:45:01;7.87;;;1.80;;
3999;SDS011;2014;53.604;10.112;2022-07-10T06:47:29;12.40;;;2.30;;
3999;SDS011;2014;53.604;10.112;2022-07-10T06:50:14;5.10;;;1.63;;
3999;SDS011;2014;53.604;10.112;2022-07-10T06:52:41;6.20;;;2.20;;
3999;SDS011;2014;53.604;10.112;2022-07-10T06:55:09;8.30;;;2.30;;
3999;SDS011;2014;53.604;10.112;2022-07-10T06:57:37;13.20;;;2.27;;
3999;SDS011;2014;53.604;10.112;2022-07-10T07:00:07;8.63;;;1.50;;
3999;SDS011;2014;53.604;10.112;2022-07-10T07:02:36;12.50;;;2.50;;
3999;SDS011;2014;53.604;10.112;2022-07-10T07:05:04;7.10;;;1.90;;
3999;SDS011;2014;53.604;10.112;2022-07-10T07:07:31;14.20;;;2.40;;
3999;SDS011;2014;53.604;10.112;2022-07-10T07:09:58;4.20;;;1.37;;
3999;SDS011;2014;53.604;10.112;2022-07-10T07:12:26;10.17;;;1.40;;
3999;SDS011;2014;53.604;10.112;2022-07-10T07:14:53;8.73;;;2.47;;
3999;SDS011;2014;53.604;10.112;2022-07-10T07:17:22;9.03;;;1.50;;
3999;SDS011;2014;53.604;10.112;2022-07-10T07:19:50;8.13;;;1.70;;
3999;SDS011;2014;53.604;10.112;2022-07-10T07:22:36;16.53;;;1.80;;
3999;SDS011;2014;53.604;10.112;2022-07-10T07:25:21;11.40;;;2.03;;
3999;SDS011;2014;53.604;10.112;2022-07-10T07:27:49;4.90;;;1.87;;
3999;SDS011;2014;53.604;10.112;2022-07-10T07:30:16;14.87;;;1.90;;
3999;SDS011;2014;53.604;10.112;2022-07-10T07:32:45;7.60;;;1.43;;
3999;SDS011;2014;53.604;10.112;2022-07-10T07:35:14;10.83;;;2.03;;
3999;SDS011;2014;53.604;10.112;2022-07-10T07:37:42;11.80;;;1.40;;
3999;SDS011;2014;53.604;10.112;2022-07-10T07:40:11;9.13;;;1.70;;
3999;SDS011;2014;53.604;10.112;2022-07-10T07:42:39;8.40;;;1.60;;
3999;SDS011;2014;53.604;10.112;2022-07-10T07:45:07;7.87;;;1.90;;
3999;SDS011;2014;53.604;10.112;2022-07-10T07:47:42;11.80;;;1.60;;
3999;SDS011;2014;53.604;10.112;2022-07-10T07:50:11;3.60;;;1.97;;
3999;SDS011;2014;53.604;10.112;2022-07-10T07:52:39;7.10;;;1.33;;
3999;SDS011;2014;53.604;10.112;2022-07-10T07:55:06;15.83;;;2.10;;
3999;SDS011;2014;53.604;10.112;2022-07-10T07:57:34;10.20;;;1.80;;
3999;SDS011;2014;53.604;10.112;2022-07-10T08:00:01;3.83;;;1.10;;
3999;SDS011;2014;53.604;10.112;2022-07-10T08:02:28;9.50;;;1.57;;
3999;SDS011;2014;53.604;10.112;2022-07-10T08:04:56;15.23;;;2.33;;
3999;SDS011;2014;53.604;10.112;2022-07-10T08:07:33;10.67;;;1.40;;
3999;SDS011;2014;53.604;10.112;2022-07-10T08:10:01;8.87;;;1.77;;
3999;SDS011;2014;53.604;10.112;2022-07-10T08:12:28;8.00;;;1.33;;
3999;SDS011;2014;53.604;10.112;2022-07-10T08:14:55;4.37;;;1.20;;
3999;SDS011;2014;53.604;10.112;2022-07-10T08:17:23;2.90;;;2.03;;
3999;SDS011;2014;53.604;10.112;2022-07-10T08:19:50;5.77;;;1.43;;
3999;SDS011;2014;53.604;10.112;2022-07-10T08:22:17;3.70;;;1.30;;
3999;SDS011;2014;53.604;10.112;2022-07-10T08:24:46;7.47;;;1.30;;
3999;SDS011;2014;53.604;10.112;2022-07-10T08:27:14;5.10;;;1.30;;
3999;SDS011;2014;53.604;10.112;2022-07-10T08:29:42;7.33;;;1.20;;
3999;SDS011;2014;53.604;10.112;2022-07-10T08:32:09;11.13;;;1.33;;
3999;SDS011;2014;53.604;10.112;2022-07-10T08:34:36;2.90;;;1.33;;
3999;SDS011;2014;53.604;10.112;2022-07-10T08:37:04;5.03;;;1.43;;
3999;SDS011;2014;53.604;10.112;2022-07-10T08:39:31;7.70;;;1.10;;
3999;SDS011;2014;53.604;10.112;2022-07-10T08:42:00;2.90;;;1.70;;
3999;SDS011;2014;53.604;10.112;2022-07-10T08:44:28;3.53;;;1.10;;
3999;SDS011;2014;53.604;10.112;2022-07-10T08:46:56;5.40;;;1.90;;
3999;SDS011;2014;53.604;10.112;2022-07-10T08:49:25;8.40;;;1.50;;
3999;SDS011;2014;53.604;10.112;2022-07-10T08:51:54;14.50;;;1.93;;
3999;SDS011;2014;53.604;10.112;2022-07-10T08:54:23;7.17;;;1.40;;
3999;SDS011;2014;53.604;10.112;2022-07-10T08:56:52;5.17;;;1.50;;
3999;SDS011;2014;53.604;10.112;2022-07-10T08:59:21;4.00;;;1.53;;
3999;SDS011;2014;53.604;10.112;2022-07-10T09:01:49;6.10;;;1.53;;
3999;SDS011;2014;53.604;10.112;2022-07-10T09:04:19;2.17;;;1.00;;
3999;SDS011;2014;53.604;10.112;2022-07-10T09:06:46;4.23;;;1.50;;
3999;SDS011;2014;53.604;10.112;2022-07-10T09:09:14;6.93;;;1.47;;
3999;SDS011;2014;53.604;10.112;2022-07-10T09:11:41;6.40;;;1.80;;
3999;SDS011;2014;53.604;10.112;2022-07-10T09:14:09;4.80;;;1.60;;
3999;SDS011;2014;53.604;10.112;2022-07-10T09:16:39;11.40;;;1.10;;
3999;SDS011;2014;53.604;10.112;2022-07-10T09:19:17;5.23;;;1.33;;
3999;SDS011;2014;53.604;10.112;2022-07-10T09:21:44;5.57;;;1.20;;
3999;SDS011;2014;53.604;10.112;2022-07-10T09:24:12;3.57;;;1.00;;
3999;SDS011;2014;53.604;10.112;2022-07-10T09:26:40;7.50;;;1.77;;
3999;SDS011;2014;53.604;10.112;2022-07-10T09:29:08;2.67;;;1.23;;
3999;SDS011;2014;53.604;10.112;2022-07-10T09:31:50;4.90;;;1.43;;
3999;SDS011;2014;53.604;10.112;2022-07-10T09:34:18;3.23;;;1.27;;
3999;SDS011;2014;53.604;10.112;2022-07-10T09:36:45;4.90;;;1.67;;
3999;SDS011;2014;53.604;10.112;2022-07-10T09:39:13;3.10;;;1.10;;
3999;SDS011;2014;53.604;10.112;2022-07-10T09:41:40;6.00;;;1.97;;
3999;SDS011;2014;53.604;10.112;2022-07-10T09:44:08;5.47;;;2.00;;
3999;SDS011;2014;53.604;10.112;2022-07-10T09:46:37;7.00;;;1.60;;
3999;SDS011;2014;53.604;10.112;2022-07-10T09:49:08;8.20;;;1.57;;
3999;SDS011;2014;53.604;10.112;2022-07-10T09:51:36;3.77;;;1.20;;
3999;SDS011;2014;53.604;10.112;2022-07-10T09:54:04;5.37;;;1.63;;
3999;SDS011;2014;53.604;10.112;2022-07-10T09:56:41;5.93;;;1.20;;
3999;SDS011;2014;53.604;10.112;2022-07-10T09:59:09;8.23;;;1.10;;
3999;SDS011;2014;53.604;10.112;2022-07-10T10:01:37;4.30;;;1.43;;
3999;SDS011;2014;53.604;10.112;2022-07-10T10:04:09;4.87;;;1.33;;
3999;SDS011;2014;53.604;10.112;2022-07-10T10:06:37;4.40;;;1.47;;
3999;SDS011;2014;53.604;10.112;2022-07-10T10:09:07;4.10;;;1.30;;
3999;SDS011;2014;53.604;10.112;2022-07-10T10:11:36;8.00;;;1.17;;
3999;SDS011;2014;53.604;10.112;2022-07-10T10:14:03;9.10;;;1.60;;
3999;SDS011;2014;53.604;10.112;2022-07-10T10:16:33;2.13;;;1.13;;
3999;SDS011;2014;53.604;10.112;2022-07-10T10:19:01;5.60;;;1.40;;
3999;SDS011;2014;53.604;10.112;2022-07-10T10:21:48;7.47;;;1.70;;
3999;SDS011;2014;53.604;10.112;2022-07-10T10:24:16;5.47;;;1.10;;
3999;SDS011;2014;53.604;10.112;2022-07-10T10:26:43;5.93;;;1.53;;
3999;SDS011;2014;53.604;10.112;2022-07-10T10:29:11;2.33;;;0.80;;
3999;SDS011;2014;53.604;10.112;2022-07-10T10:31:38;5.43;;;1.37;;
3999;SDS011;2014;53.604;10.112;2022-07-10T10:34:06;7.03;;;1.57;;
3999;SDS011;2014;53.604;10.112;2022-07-10T10:36:43;7.10;;;1.17;;
3999;SDS011;2014;53.604;10.112;2022-07-10T10:39:12;3.60;;;1.60;;
3999;SDS011;2014;53.604;10.112;2022-07-10T10:41:41;7.40;;;1.20;;
3999;SDS011;2014;53.604;10.112;2022-07-10T10:44:22;2.23;;;0.70;;
3999;SDS011;2014;53.604;10.112;2022-07-10T10:46:54;8.40;;;1.30;;
3999;SDS011;2014;53.604;10.112;2022-07-10T10:49:26;6.60;;;1.17;;
3999;SDS011;2014;53.604;10.112;2022-07-10T10:51:57;5.57;;;1.77;;
3999;SDS011;2014;53.604;10.112;2022-07-10T10:54:26;4.67;;;1.30;;
3999;SDS011;2014;53.604;10.112;2022-07-10T10:57:13;5.90;;;1.00;;
3999;SDS011;2014;53.604;10.112;2022-07-10T10:59:44;2.20;;;0.90;;
3999;SDS011;2014;53.604;10.112;2022-07-10T11:02:20;2.10;;;0.93;;
3999;SDS011;2014;53.604;10.112;2022-07-10T11:04:48;2.17;;;1.17;;
3999;SDS011;2014;53.604;10.112;2022-07-10T11:15:33;7.27;;;1.40;;
3999;SDS011;2014;53.604;10.112;2022-07-10T11:18:05;9.43;;;1.33;;
3999;SDS011;2014;53.604;10.112;2022-07-10T11:20:33;7.93;;;1.43;;
3999;SDS011;2014;53.604;10.112;2022-07-10T11:23:11;9.50;;;1.10;;
3999;SDS011;2014;53.604;10.112;2022-07-10T11:25:45;4.03;;;1.67;;
3999;SDS011;2014;53.604;10.112;2022-07-10T11:28:27;2.10;;;0.80;;
3999;SDS011;2014;53.604;10.112;2022-07-10T11:31:00;1.50;;;1.37;;
3999;SDS011;2014;53.604;10.112;2022-07-10T11:33:28;1.67;;;0.80;;
3999;SDS011;2014;53.604;10.112;2022-07-10T11:35:55;5.07;;;1.20;;
3999;SDS011;2014;53.604;10.112;2022-07-10T11:38:23;5.73;;;1.57;;
3999;SDS011;2014;53.604;10.112;2022-07-10T11:40:51;4.70;;;1.37;;
3999;SDS011;2014;53.604;10.112;2022-07-10T11:43:20;9.67;;;1.10;;
3999;SDS011;2014;53.604;10.112;2022-07-10T11:45:49;8.30;;;0.90;;
3999;SDS011;2014;53.604;10.112;2022-07-10T11:48:19;4.87;;;0.90;;
3999;SDS011;2014;53.604;10.112;2022-07-10T11:50:46;7.23;;;2.00;;
3999;SDS011;2014;53.604;10.112;2022-07-10T11:53:21;6.63;;;1.50;;
3999;SDS011;2014;53.604;10.112;2022-07-10T11:55:48;5.10;;;1.90;;
3999;SDS011;2014;53.604;10.112;2022-07-10T11:58:18;7.17;;;1.20;;
3999;SDS011;2014;53.604;10.112;2022-07-10T12:00:56;6.33;;;1.17;;
3999;SDS011;2014;53.604;10.112;2022-07-10T12:03:26;5.20;;;1.07;;
3999;SDS011;2014;53.604;10.112;2022-07-10T12:05:53;8.60;;;1.00;;
3999;SDS011;2014;53.604;10.112;2022-07-10T12:08:20;4.43;;;1.03;;
3999;SDS011;2014;53.604;10.112;2022-07-10T12:10:47;4.73;;;1.17;;
3999;SDS011;2014;53.604;10.112;2022-07-10T12:13:15;3.60;;;1.40;;
3999;SDS011;2014;53.604;10.112;2022-07-10T12:15:42;9.80;;;1.67;;
3999;SDS011;2014;53.604;10.112;2022-07-10T12:18:14;5.87;;;1.00;;
3999;SDS011;2014;53.604;10.112;2022-07-10T12:20:44;2.60;;;1.10;;
3999;SDS011;2014;53.604;10.112;2022-07-10T12:23:12;6.37;;;1.10;;
3999;SDS011;2014;53.604;10.112;2022-07-10T12:25:41;2.17;;;1.20;;
3999;SDS011;2014;53.604;10.112;2022-07-10T12:28:09;2.80;;;0.97;;
3999;SDS011;2014;53.604;10.112;2022-07-10T12:30:38;4.70;;;1.77;;
3999;SDS011;2014;53.604;10.112;2022-07-10T12:33:09;4.47;;;1.17;;
3999;SDS011;2014;53.604;10.112;2022-07-10T12:35:49;4.53;;;2.20;;
3999;SDS011;2014;53.604;10.112;2022-07-10T12:38:17;5.90;;;1.67;;
3999;SDS011;2014;53.604;10.112;2022-07-10T12:40:45;16.57;;;1.10;;
3999;SDS011;2014;53.604;10.112;2022-07-10T12:43:12;4.93;;;1.57;;
3999;SDS011;2014;53.604;10.112;2022-07-10T12:45:40;4.70;;;1.17;;
3999;SDS011;2014;53.604;10.112;2022-07-10T12:48:07;9.03;;;1.30;;
3999;SDS011;2014;53.604;10.112;2022-07-10T12:50:48;3.07;;;1.50;;
3999;SDS011;2014;53.604;10.112;2022-07-10T12:53:17;1.10;;;1.00;;
3999;SDS011;2014;53.604;10.112;2022-07-10T12:55:44;3.50;;;1.63;;
3999;SDS011;2014;53.604;10.112;2022-07-10T12:58:12;4.83;;;1.47;;
3999;SDS011;2014;53.604;10.112;2022-07-10T13:00:43;5.07;;;1.30;;
3999;SDS011;2014;53.604;10.112;2022-07-10T13:03:16;7.40;;;2.07;;
3999;SDS011;2014;53.604;10.112;2022-07-10T13:05:43;5.70;;;2.53;;
3999;SDS011;2014;53.604;10.112;2022-07-10T13:08:11;2.43;;;0.80;;
3999;SDS011;2014;53.604;10.112;2022-07-10T13:10:43;4.27;;;1.43;;
3999;SDS011;2014;53.604;10.112;2022-07-10T13:13:11;5.30;;;1.77;;
3999;SDS011;2014;53.604;10.112;2022-07-10T13:15:39;4.47;;;1.37;;
3999;SDS011;2014;53.604;10.112;2022-07-10T13:18:12;1.77;;;1.23;;
3999;SDS011;2014;53.604;10.112;2022-07-10T13:20:40;2.50;;;2.20;;
3999;SDS011;2014;53.604;10.112;2022-07-10T13:23:07;7.77;;;1.73;;
3999;SDS011;2014;53.604;10.112;2022-07-10T13:25:35;3.17;;;0.93;;
3999;SDS011;2014;53.604;10.112;2022-07-10T13:28:04;7.67;;;1.67;;
3999;SDS011;2014;53.604;10.112;2022-07-10T13:30:32;4.80;;;1.30;;
3999;SDS011;2014;53.604;10.112;2022-07-10T13:32:59;2.53;;;1.40;;
3999;SDS011;2014;53.604;10.112;2022-07-10T13:35:27;4.90;;;1.40;;
3999;SDS011;2014;53.604;10.112;2022-07-10T13:37:55;3.00;;;1.20;;
3999;SDS011;2014;53.604;10.112;2022-07-10T13:40:24;3.07;;;1.53;;
3999;SDS011;2014;53.604;10.112;2022-07-10T13:42:52;5.77;;;1.73;;
3999;SDS011;2014;53.604;10.112;2022-07-10T13:45:21;6.00;;;1.10;;
3999;SDS011;2014;53.604;10.112;2022-07-10T13:47:50;9.90;;;1.57;;
3999;SDS011;2014;53.604;10.112;2022-07-10T13:50:18;4.60;;;1.70;;
3999;SDS011;2014;53.604;10.112;2022-07-10T13:52:46;2.07;;;1.70;;
3999;SDS011;2014;53.604;10.112;2022-07-10T13:55:13;4.93;;;1.27;;
3999;SDS011;2014;53.604;10.112;2022-07-10T13:57:41;17.37;;;1.40;;
3999;SDS011;2014;53.604;10.112;2022-07-10T14:00:09;1.87;;;1.07;;
3999;SDS011;2014;53.604;10.112;2022-07-10T14:02:38;10.07;;;1.37;;
3999;SDS011;2014;53.604;10.112;2022-07-10T14:05:06;5.23;;;1.30;;
3999;SDS011;2014;53.604;10.112;2022-07-10T14:07:34;2.97;;;1.40;;
3999;SDS011;2014;53.604;10.112;2022-07-10T14:10:01;6.23;;;1.50;;
3999;SDS011;2014;53.604;10.112;2022-07-10T14:12:29;7.97;;;1.50;;
3999;SDS011;2014;53.604;10.112;2022-07-10T14:14:56;6.23;;;1.70;;
3999;SDS011;2014;53.604;10.112;2022-07-10T14:17:25;8.63;;;1.10;;
3999;SDS011;2014;53.604;10.112;2022-07-10T14:19:54;5.10;;;1.73;;
3999;SDS011;2014;53.604;10.112;2022-07-10T14:22:21;8.40;;;1.33;;
3999;SDS011;2014;53.604;10.112;2022-07-10T14:24:50;9.93;;;2.53;;
3999;SDS011;2014;53.604;10.112;2022-07-10T14:27:19;3.50;;;1.40;;
3999;SDS011;2014;53.604;10.112;2022-07-10T14:29:48;5.80;;;1.07;;
3999;SDS011;2014;53.604;10.112;2022-07-10T14:32:15;2.57;;;1.20;;
3999;SDS011;2014;53.604;10.112;2022-07-10T14:34:43;7.60;;;1.40;;
3999;SDS011;2014;53.604;10.112;2022-07-10T14:37:11;5.10;;;1.83;;
3999;SDS011;2014;53.604;10.112;2022-07-10T14:39:39;3.57;;;0.90;;
3999;SDS011;2014;53.604;10.112;2022-07-10T14:42:07;10.43;;;1.20;;
3999;SDS011;2014;53.604;10.112;2022-07-10T14:44:35;2.70;;;1.00;;
3999;SDS011;2014;53.604;10.112;2022-07-10T14:47:03;4.00;;;0.90;;
3999;SDS011;2014;53.604;10.112;2022-07-10T14:49:30;10.60;;;1.03;;
3999;SDS011;2014;53.604;10.112;2022-07-10T14:51:57;2.80;;;1.00;;
3999;SDS011;2014;53.604;10.112;2022-07-10T14:54:26;4.17;;;1.20;;
3999;SDS011;2014;53.604;10.112;2022-07-10T14:56:54;7.23;;;1.37;;
3999;SDS011;2014;53.604;10.112;2022-07-10T14:59:21;9.07;;;1.80;;
3999;SDS011;2014;53.604;10.112;2022-07-10T15:01:49;3.77;;;1.30;;
3999;SDS011;2014;53.604;10.112;2022-07-10T15:04:16;5.50;;;1.40;;
3999;SDS011;2014;53.604;10.112;2022-07-10T15:06:43;8.43;;;1.30;;
3999;SDS011;2014;53.604;10.112;2022-07-10T15:09:12;12.73;;;1.30;;
3999;SDS011;2014;53.604;10.112;2022-07-10T15:11:41;3.90;;;1.53;;
3999;SDS011;2014;53.604;10.112;2022-07-10T15:14:09;4.00;;;1.00;;